ADDS METAR Data INFO
IDs: Format: Raw Decoded Include TAF

Data at: 1437 UTC 22 Feb 2018

KMIC 221353Z 04003KT 10SM SCT050 M12/M15 A3058 RMK AO2 SLP374 T11171150
KMIC 221253Z 12003KT 10SM CLR M12/M16 A3058 RMK AO2 SLP376 T11221156
KMIC 221153Z AUTO 17003KT 10SM CLR M14/M17 A3059 RMK AO2 SLP379 I6000 T11441167 11144 21172 58002 TSNO
KMIC 221053Z AUTO 00000KT 10SM SCT110 M17/M19 A3059 RMK AO2 SLP381 T11671194 TSNO
KMIC 220953Z AUTO 00000KT 10SM CLR M17/M19 A3059 RMK AO2 SLP378 I1000 T11671189 TSNO
KMIC 220853Z AUTO 00000KT 10SM CLR M16/M19 A3059 RMK AO2 SLP380 I1000 I3000 T11561189 58005 TSNO
KMIC 220753Z AUTO 00000KT 10SM CLR M16/M18 A3061 RMK AO2 SLP388 T11561183 TSNO
KMIC 220653Z AUTO 00000KT 10SM CLR M15/M18 A3061 RMK AO2 SLP386 T11501178 TSNO
KMIC 220553Z AUTO 00000KT 10SM CLR M15/M18 A3061 RMK AO2 SLP386 T11501178 11083 21150 410721172 58007 TSNO
KMIC 220453Z AUTO 00000KT 10SM CLR M13/M17 A3063 RMK AO2 SLP394 T11331172 TSNO
KMIC 220353Z AUTO 00000KT 10SM CLR M13/M17 A3064 RMK AO2 SLP396 T11281172 TSNO
KMIC 212353Z 22004KT 10SM CLR M09/M18 A3062 RMK AO2 SLP392 T10891178 11072 21100 53004
KMIC 212253Z 24009KT 10SM CLR M08/M19 A3062 RMK AO2 SLP390 T10781189
KMIC 212153Z 23007KT 10SM CLR M07/M18 A3061 RMK AO2 SLP386 T10721178
KMIC 212053Z 23007KT 10SM CLR M08/M18 A3061 RMK AO2 SLP386 T10781178 55003
KMIC 211953Z 26006KT 10SM CLR M08/M18 A3060 RMK AO2 SLP383 T10781183
KMIC 211853Z 25005KT 10SM CLR M09/M18 A3061 RMK AO2 SLP387 T10891178
KMIC 211753Z 21008KT 10SM CLR M09/M17 A3062 RMK AO2 SLP390 T10941172 11094 21172 51020
KMIC 211653Z 22006KT 10SM CLR M11/M18 A3061 RMK AO2 SLP385 T11111183
KMIC 211553Z 24005KT 10SM CLR M13/M19 A3058 RMK AO2 SLP376 T11331189
KMIC 211453Z 20006KT 10SM CLR M15/M19 A3056 RMK AO2 SLP371 T11501194 52017
KMIC 211353Z 22004KT 10SM CLR M17/M20 A3054 RMK AO2 SLP365 T11671200
KMIC 211253Z 25004KT 10SM CLR M17/M21 A3053 RMK AO2 SLP359 T11721206
KMIC 210753Z AUTO 26006KT 10SM CLR M15/M18 A3042 RMK AO2 SLP319 T11501183 TSNO
KMIC 210653Z AUTO 27006KT 10SM CLR M14/M18 A3039 RMK AO2 SLP310 T11441183 TSNO
KMIC 210553Z AUTO 29008KT 10SM CLR M14/M18 A3036 RMK AO2 SLP299 T11391183 11089 21139 410671139 51031 TSNO